FW2648 Gulf Breeze FL US current weather conditions

sailwx.info

Wind from 161

Air temperature 14.4° C
Dewpoint 4.4° C

Last reported at 2020-Jan-28 23:10 UTC.
Time now 2020-Jan-28 23:48 UTC

Location: N 30°22' W 087°11'.
View on Google Maps.

See reports from other nearby stations

  
Tides and Currents Weather Stations Pressure Air Temp Water Temp Dewpoint Dewpoint Depression Visibility Wind Speed Wind Dir Waves Ship Positions
date/time (UTC)wind fromknots sea level pressurealtimeterstation pressurevisibilityair tempwater tempwave heightnotes
2020-Jan-28 23:10 161 14.4
2020-Jan-28 23:00 161 0 gusting 1 14.4
2020-Jan-28 22:50 161 15.0
2020-Jan-28 22:40 155 15.6
2020-Jan-28 22:30 155 1 gusting 2 15.6
2020-Jan-28 22:20 155 15.6
2020-Jan-28 22:10 153 0 gusting 3 15.6
2020-Jan-28 19:17 115 6 gusting 12 15.0
2020-Jan-28 19:07 114 6 gusting 11 15.0
2020-Jan-28 18:57 144 7 gusting 13 15.0
2020-Jan-28 18:47 130 6 gusting 12 15.0
2020-Jan-28 18:37 113 7 gusting 11 15.0
2020-Jan-28 18:27 154 8 gusting 13 15.0
2020-Jan-28 18:17 173 5 gusting 12 15.0
2020-Jan-28 18:07 146 12 gusting 16 15.0
2020-Jan-28 17:57 140 10 gusting 13 14.4
2020-Jan-28 17:47 076 3 gusting 8 13.3
2020-Jan-28 17:37 032 4 gusting 6 13.3
2020-Jan-28 17:27 043 6 gusting 6 12.8
2020-Jan-28 17:17 038 3 gusting 6 12.2
2020-Jan-28 17:07 034 4 gusting 6 12.2
2020-Jan-28 16:57 063 5 gusting 7 11.7
2020-Jan-28 16:47 045 6 gusting 7 11.7
2020-Jan-28 16:37 048 6 gusting 7 11.1
2020-Jan-28 16:27 059 6 gusting 8 10.6
2020-Jan-28 16:17 044 6 gusting 7 10.6
2020-Jan-28 16:07 051 6 gusting 8 10.0
2020-Jan-28 15:57 048 8 gusting 8 10.0
2020-Jan-28 15:47 026 5 gusting 7 10.0
2020-Jan-28 15:37 051 6 gusting 8 9.4
2020-Jan-28 15:27 044 5 gusting 8 9.4
2020-Jan-28 15:17 013 6 gusting 8 9.4
2020-Jan-28 15:07 045 6 gusting 8 9.4
2020-Jan-28 14:57 045 5 gusting 9 9.4
2020-Jan-28 14:47 047 7 gusting 8 8.9
2020-Jan-28 14:37 048 6 gusting 9 8.9
2020-Jan-28 14:27 053 7 gusting 8 8.9
2020-Jan-28 14:17 033 6 gusting 8 9.4
2020-Jan-28 14:07 053 5 gusting 8 9.4
2020-Jan-28 13:57 040 5 gusting 7 9.4
2020-Jan-28 13:46 051 4 gusting 7 9.4
2020-Jan-28 13:36 059 4 gusting 6 9.4
2020-Jan-28 13:26 054 4 gusting 7 9.4
2020-Jan-28 13:16 067 6 gusting 6 9.4
2020-Jan-28 13:06 050 4 gusting 6 8.9
2020-Jan-28 12:56 031 5 gusting 5 8.9
2020-Jan-28 12:46 030 2 gusting 5 8.9
2020-Jan-28 12:36 038 0 gusting 5 8.9
2020-Jan-28 12:26 050 4 gusting 5 8.9
2020-Jan-28 12:16 039 0 gusting 4 8.9
2020-Jan-28 12:06 038 1 gusting 3 8.9
2020-Jan-28 11:56 051 1 gusting 3 8.9
2020-Jan-28 11:46 360 1 gusting 4 8.9
2020-Jan-28 11:36 038 1 gusting 1 8.9
2020-Jan-28 11:26 342 1 gusting 5 8.9
2020-Jan-28 11:16 005 8.9
2020-Jan-28 11:06 056 0 gusting 4 8.9
2020-Jan-28 10:56 051 1 gusting 4 8.9
2020-Jan-28 10:46 065 3 gusting 5 8.9
2020-Jan-28 10:36 046 1 gusting 4 8.9
2020-Jan-28 10:26 067 1 gusting 4 8.9
2020-Jan-28 10:16 032 8.9
2020-Jan-28 10:06 032 8.9
2020-Jan-28 09:56 032 8.9
2020-Jan-28 09:46 341 8.9
2020-Jan-28 09:36 341 8.9
2020-Jan-28 09:26 341 8.3
2020-Jan-28 09:16 341 8.9
2020-Jan-28 09:06 341 8.9
2020-Jan-28 08:56 341 8.9
2020-Jan-28 08:46 341 8.9
2020-Jan-28 08:36 341 8.9
2020-Jan-28 08:26 341 8.9
2020-Jan-28 08:16 341 8.9
2020-Jan-28 08:06 341 8.9
2020-Jan-28 07:56 341 8.9
2020-Jan-28 07:46 341 8.9
2020-Jan-28 07:36 333 8.9
2020-Jan-28 07:26 342 8.9
2020-Jan-28 07:16 323 8.9
2020-Jan-28 07:06 323 8.9
2020-Jan-28 06:56 329 8.9
2020-Jan-28 06:46 351 8.3
2020-Jan-28 06:36 351 8.9
2020-Jan-28 06:26 351 9.4
2020-Jan-28 06:16 351 10.0
2020-Jan-28 06:06 351 10.0
2020-Jan-28 05:56 360 1 gusting 4 10.0
2020-Jan-28 05:46 045 10.0
2020-Jan-28 05:36 005 0 gusting 1 10.0
2020-Jan-28 05:26 005 0 gusting 1 10.0
2020-Jan-28 05:16 328 10.6
2020-Jan-28 05:06 344 1 gusting 3 10.6
2020-Jan-28 04:56 338 0 gusting 4 10.6
2020-Jan-28 04:46 013 10.6
2020-Jan-28 04:36 013 0 gusting 1 10.6
2020-Jan-28 04:26 355 1 gusting 4 10.6
2020-Jan-28 04:16 360 10.6
2020-Jan-28 04:06 303 10.6
2020-Jan-28 03:56 300 10.6
2020-Jan-28 03:46 299 10.6
2020-Jan-28 03:36 300 10.6
2020-Jan-28 03:25 331 10.6
2020-Jan-28 03:15 331 10.6
2020-Jan-28 03:05 330 10.6
2020-Jan-28 02:55 336 10.6
2020-Jan-28 02:45 355 10.6
2020-Jan-28 02:35 355 11.1
2020-Jan-28 02:25 355 11.1
2020-Jan-28 02:15 355 11.7
2020-Jan-28 02:05 355 11.7
2020-Jan-28 01:55 355 0 gusting 5 11.7
2020-Jan-28 01:45 327 12.2
2020-Jan-28 01:35 049 4 gusting 4 12.2
2020-Jan-28 01:25 034 1 gusting 1 12.2
2020-Jan-28 01:15 311 12.2
2020-Jan-28 01:05 345 1 gusting 4 12.2
2020-Jan-28 00:55 323 4 gusting 4 12.2
2020-Jan-28 00:45 024 0 gusting 3 12.2
2020-Jan-28 00:35 339 12.2
2020-Jan-28 00:25 350 0 gusting 3 12.8
2020-Jan-28 00:15 346 12.8
2020-Jan-28 00:05 025 0 gusting 4 12.8
2020-Jan-27 23:55 005 0 gusting 6 12.8
2020-Jan-27 23:45 021 4 gusting 5 12.8
2020-Jan-27 23:35 027 1 gusting 6 12.8
2020-Jan-27 23:25 275 4 gusting 6 12.8
2020-Jan-27 23:15 053 13.3
2020-Jan-27 23:05 337 2 gusting 5 13.3
2020-Jan-27 22:55 057 3 gusting 9 13.3
2020-Jan-27 22:45 074 3 gusting 5 13.3
2020-Jan-27 22:35 100 13.3
2020-Jan-27 22:25 055 6 gusting 8 13.3
2020-Jan-27 22:15 052 1 gusting 6 13.3
2020-Jan-27 22:05 005 3 gusting 9 13.3
2020-Jan-27 21:55 100 2 gusting 8 13.3
2020-Jan-27 21:45 043 4 gusting 9 13.3
2020-Jan-27 21:35 149 1 gusting 7 13.3
2020-Jan-27 21:25 355 3 gusting 7 13.3
2020-Jan-27 21:15 046 1 gusting 7 13.3
2020-Jan-27 21:05 060 6 gusting 8 13.3
2020-Jan-27 20:55 042 4 gusting 8 13.3
2020-Jan-27 20:45 355 0 gusting 8 13.9
2020-Jan-27 20:35 304 2 gusting 8 13.9
2020-Jan-27 20:25 074 4 gusting 9 13.9
2020-Jan-27 20:15 092 4 gusting 8 14.4
2020-Jan-27 20:05 013 4 gusting 8 14.4
2020-Jan-27 19:55 251 0 gusting 7 14.4
2020-Jan-27 19:45 069 4 gusting 6 15.0
2020-Jan-27 19:35 011 4 gusting 7 15.0
2020-Jan-27 19:25 126 3 gusting 8 15.0
2020-Jan-27 19:15 115 1 gusting 10 15.0
2020-Jan-27 19:05 037 7 gusting 9 15.0
2020-Jan-27 18:55 344 4 gusting 10 15.0
2020-Jan-27 18:45 075 7 gusting 8 15.0
2020-Jan-27 18:35 077 4 gusting 10 15.0
2020-Jan-27 18:25 044 4 gusting 10 14.4
2020-Jan-27 18:15 083 4 gusting 8 13.9
2020-Jan-27 18:05 051 7 gusting 8 13.3
2020-Jan-27 17:55 068 5 gusting 8 13.3
2020-Jan-27 17:45 053 6 gusting 7 13.3
2020-Jan-27 17:35 057 6 gusting 7 12.8
2020-Jan-27 17:25 051 4 gusting 8 12.8
2020-Jan-27 17:15 051 5 gusting 7 12.2
2020-Jan-27 17:04 067 4 gusting 8 12.2
2020-Jan-27 16:54 052 6 gusting 8 11.7
2020-Jan-27 16:44 054 6 gusting 8 11.7
2020-Jan-27 16:34 065 6 gusting 9 11.1
2020-Jan-27 16:24 053 6 gusting 8 11.1
2020-Jan-27 16:14 048 4 gusting 8 11.1
2020-Jan-27 16:04 074 2 gusting 6 11.1
2020-Jan-27 15:54 074 4 gusting 8 10.6
2020-Jan-27 15:44 086 1 gusting 6 10.6
2020-Jan-27 15:34 150 4 gusting 9 10.6
2020-Jan-27 15:24 076 6 gusting 8 10.6
2020-Jan-27 15:14 080 4 gusting 10 10.6
2020-Jan-27 15:04 043 9 gusting 11 10.6
2020-Jan-27 14:54 026 8 gusting 9 10.0
2020-Jan-27 14:44 080 5 gusting 9 10.0
2020-Jan-27 14:34 014 5 gusting 7 10.0
2020-Jan-27 14:24 086 4 gusting 7 10.0
2020-Jan-27 14:14 049 3 gusting 7 10.0
2020-Jan-27 14:04 098 3 gusting 7 10.0
2020-Jan-27 13:54 128 3 gusting 7 10.0
2020-Jan-27 13:44 057 4 gusting 6 10.0
2020-Jan-27 13:34 252 1 gusting 6 10.0
2020-Jan-27 13:24 078 3 gusting 6 10.0
2020-Jan-27 13:14 285 4 gusting 6 10.0
2020-Jan-27 13:04 103 3 gusting 9 10.0
2020-Jan-27 12:54 040 3 gusting 9 10.0
2020-Jan-27 12:44 049 6 gusting 9 10.0
2020-Jan-27 12:34 024 8 gusting 9 10.0
2020-Jan-27 12:24 034 5 gusting 8 10.0
2020-Jan-27 12:14 041 6 gusting 8 10.0
2020-Jan-27 12:04 042 6 gusting 9 10.0
2020-Jan-27 11:54 036 5 gusting 10 10.0
2020-Jan-27 11:44 049 7 gusting 12 10.0
2020-Jan-27 11:34 055 6 gusting 10 10.0
2020-Jan-27 11:24 052 6 gusting 10 10.0
2020-Jan-27 11:14 053 6 gusting 9 10.0
2020-Jan-27 11:04 038 7 gusting 11 10.0
2020-Jan-27 10:54 068 6 gusting 9 10.0
2020-Jan-27 10:44 044 7 gusting 10 10.0
2020-Jan-27 10:34 046 4 gusting 10 10.0
2020-Jan-27 10:24 056 6 gusting 10 10.0
2020-Jan-27 10:14 057 7 gusting 11 10.0
2020-Jan-27 10:04 065 6 gusting 10 10.0
2020-Jan-27 09:54 040 7 gusting 11 10.0
2020-Jan-27 09:44 067 5 gusting 11 10.0
2020-Jan-27 09:34 039 9 gusting 11 10.0
2020-Jan-27 09:24 077 6 gusting 11 10.0
2020-Jan-27 09:14 058 6 gusting 10 10.0
2020-Jan-27 09:04 040 9 gusting 10 10.0
2020-Jan-27 08:54 005 6 gusting 12 10.0
2020-Jan-27 08:44 063 11 gusting 11 10.0
2020-Jan-27 08:34 063 4 gusting 9 10.0
2020-Jan-27 08:24 065 4 gusting 10 10.0
2020-Jan-27 08:14 355 3 gusting 11 10.0
2020-Jan-27 08:04 059 8 gusting 10 10.6
2020-Jan-27 07:54 013 5 gusting 7 10.6
2020-Jan-27 07:44 061 3 gusting 9 10.6
2020-Jan-27 07:34 064 5 gusting 9 11.1
2020-Jan-27 07:24 055 8 gusting 10 10.6
2020-Jan-27 07:13 044 5 gusting 9 11.1
2020-Jan-27 07:03 082 6 gusting 10 11.1
2020-Jan-27 06:53 065 7 gusting 9 11.1
2020-Jan-27 06:43 055 7 gusting 8 11.1
2020-Jan-27 06:33 042 6 gusting 8 11.1
2020-Jan-27 06:23 054 5 gusting 8 11.1
2020-Jan-27 06:13 029 5 gusting 8 11.1
2020-Jan-27 06:03 055 6 gusting 9 11.1
2020-Jan-27 05:53 038 6 gusting 9 11.1
2020-Jan-27 05:43 044 9 gusting 10 11.1
2020-Jan-27 05:33 058 4 gusting 8 11.1
2020-Jan-27 05:23 065 5 gusting 9 11.1
2020-Jan-27 05:13 055 6 gusting 8 10.6
2020-Jan-27 05:03 049 7 gusting 10 10.6
2020-Jan-27 04:53 046 6 gusting 11 10.6
2020-Jan-27 04:43 051 7 gusting 12 10.6
2020-Jan-27 04:33 056 6 gusting 12 11.1
2020-Jan-27 04:23 077 6 gusting 11 11.1
2020-Jan-27 04:13 040 6 gusting 10 11.1
2020-Jan-27 04:03 049 6 gusting 8 11.1
2020-Jan-27 03:53 042 5 gusting 9 11.1
2020-Jan-27 03:43 040 4 gusting 6 11.1
2020-Jan-27 03:33 062 5 gusting 7 11.1
2020-Jan-27 03:23 037 5 gusting 7 11.1
2020-Jan-27 03:13 053 5 gusting 6 11.1
2020-Jan-27 03:03 051 5 gusting 9 11.1
2020-Jan-27 02:53 036 8 gusting 9 11.1
2020-Jan-27 02:43 033 6 gusting 8 11.1
2020-Jan-27 02:33 052 4 gusting 9 11.1
2020-Jan-27 02:23 061 5 gusting 7 11.1
2020-Jan-27 02:13 044 5 gusting 6 11.1
2020-Jan-27 02:03 079 5 gusting 6 11.1
2020-Jan-27 01:53 071 3 gusting 5 11.1
2020-Jan-27 01:43 045 2 gusting 6 10.6
2020-Jan-27 01:33 032 3 gusting 6 10.6
2020-Jan-27 01:23 053 3 gusting 5 10.6
2020-Jan-27 01:13 079 3 gusting 4 10.6
2020-Jan-27 01:03 094 3 gusting 6 10.6
2020-Jan-27 00:53 094 0 gusting 6 10.0
2020-Jan-27 00:43 036 2 gusting 7 10.0
2020-Jan-27 00:33 127 1 gusting 7 10.0
2020-Jan-27 00:23 118 4 gusting 9 10.0
2020-Jan-27 00:13 087 4 gusting 11 10.0
2020-Jan-27 00:03 081 7 gusting 11 10.0
2020-Jan-26 23:53 077 2 gusting 5 10.0
2020-Jan-26 23:43 145 4 gusting 10 10.0
2020-Jan-26 23:33 019 4 gusting 6 10.0
2020-Jan-26 23:23 129 5 gusting 6 10.0
2020-Jan-26 23:13 122 3 gusting 7 9.4
2020-Jan-26 23:03 132 4 gusting 8 10.0